sensor_id;sensor_type;location;lat;lon;timestamp;P1;durP1;ratioP1;P2;durP2;ratioP2
57593;SDS011;43423;46.510;6.686;2023-07-22T00:00:49;14.65;;;3.50;;
57593;SDS011;43423;46.510;6.686;2023-07-22T00:03:32;6.03;;;3.17;;
57593;SDS011;43423;46.510;6.686;2023-07-22T00:06:05;7.70;;;3.47;;
57593;SDS011;43423;46.510;6.686;2023-07-22T00:08:32;6.40;;;3.22;;
57593;SDS011;43423;46.510;6.686;2023-07-22T00:10:59;7.30;;;3.17;;
57593;SDS011;43423;46.510;6.686;2023-07-22T00:13:25;7.25;;;2.90;;
57593;SDS011;43423;46.510;6.686;2023-07-22T00:15:55;9.85;;;3.33;;
57593;SDS011;43423;46.510;6.686;2023-07-22T00:18:21;7.88;;;3.35;;
57593;SDS011;43423;46.510;6.686;2023-07-22T00:20:49;9.20;;;3.40;;
57593;SDS011;43423;46.510;6.686;2023-07-22T00:23:15;5.20;;;2.88;;
57593;SDS011;43423;46.510;6.686;2023-07-22T00:25:41;5.55;;;3.42;;
57593;SDS011;43423;46.510;6.686;2023-07-22T00:28:07;6.07;;;3.13;;
57593;SDS011;43423;46.510;6.686;2023-07-22T00:30:32;5.25;;;3.10;;
57593;SDS011;43423;46.510;6.686;2023-07-22T00:32:58;5.82;;;3.15;;
57593;SDS011;43423;46.510;6.686;2023-07-22T00:35:24;7.57;;;3.00;;
57593;SDS011;43423;46.510;6.686;2023-07-22T00:37:49;7.95;;;2.83;;
57593;SDS011;43423;46.510;6.686;2023-07-22T00:40:15;6.10;;;3.20;;
57593;SDS011;43423;46.510;6.686;2023-07-22T00:42:41;6.72;;;3.33;;
57593;SDS011;43423;46.510;6.686;2023-07-22T00:45:06;6.82;;;3.45;;
57593;SDS011;43423;46.510;6.686;2023-07-22T00:47:33;6.95;;;3.30;;
57593;SDS011;43423;46.510;6.686;2023-07-22T00:50:03;6.40;;;3.22;;
57593;SDS011;43423;46.510;6.686;2023-07-22T00:52:31;6.47;;;3.08;;
57593;SDS011;43423;46.510;6.686;2023-07-22T00:54:58;6.63;;;3.22;;
57593;SDS011;43423;46.510;6.686;2023-07-22T00:57:23;7.80;;;3.47;;
57593;SDS011;43423;46.510;6.686;2023-07-22T00:59:49;6.97;;;3.35;;
57593;SDS011;43423;46.510;6.686;2023-07-22T01:02:14;5.90;;;3.05;;
57593;SDS011;43423;46.510;6.686;2023-07-22T01:04:40;5.50;;;3.08;;
57593;SDS011;43423;46.510;6.686;2023-07-22T01:07:06;9.88;;;3.25;;
57593;SDS011;43423;46.510;6.686;2023-07-22T01:09:36;6.65;;;3.88;;
57593;SDS011;43423;46.510;6.686;2023-07-22T01:12:02;4.50;;;3.10;;
57593;SDS011;43423;46.510;6.686;2023-07-22T01:14:28;7.57;;;2.90;;
57593;SDS011;43423;46.510;6.686;2023-07-22T01:16:53;6.68;;;3.03;;
57593;SDS011;43423;46.510;6.686;2023-07-22T01:19:19;5.63;;;3.10;;
57593;SDS011;43423;46.510;6.686;2023-07-22T01:21:45;5.13;;;2.90;;
57593;SDS011;43423;46.510;6.686;2023-07-22T01:24:12;7.22;;;2.60;;
57593;SDS011;43423;46.510;6.686;2023-07-22T01:26:38;5.72;;;3.40;;
57593;SDS011;43423;46.510;6.686;2023-07-22T01:29:04;5.13;;;3.17;;
57593;SDS011;43423;46.510;6.686;2023-07-22T01:31:33;5.40;;;2.60;;
57593;SDS011;43423;46.510;6.686;2023-07-22T01:34:00;6.05;;;3.58;;
57593;SDS011;43423;46.510;6.686;2023-07-22T01:36:26;9.32;;;2.83;;
57593;SDS011;43423;46.510;6.686;2023-07-22T01:38:52;9.63;;;3.20;;
57593;SDS011;43423;46.510;6.686;2023-07-22T01:41:17;6.00;;;2.90;;
57593;SDS011;43423;46.510;6.686;2023-07-22T01:43:43;5.20;;;2.72;;
57593;SDS011;43423;46.510;6.686;2023-07-22T01:46:08;8.48;;;3.63;;
57593;SDS011;43423;46.510;6.686;2023-07-22T01:48:34;7.28;;;3.30;;
57593;SDS011;43423;46.510;6.686;2023-07-22T01:50:59;7.55;;;3.85;;
57593;SDS011;43423;46.510;6.686;2023-07-22T01:53:25;7.82;;;3.05;;
57593;SDS011;43423;46.510;6.686;2023-07-22T01:55:50;5.15;;;2.90;;
57593;SDS011;43423;46.510;6.686;2023-07-22T01:58:16;7.07;;;3.05;;
57593;SDS011;43423;46.510;6.686;2023-07-22T02:00:41;5.55;;;3.13;;
57593;SDS011;43423;46.510;6.686;2023-07-22T02:03:07;5.68;;;3.08;;
57593;SDS011;43423;46.510;6.686;2023-07-22T02:05:33;7.70;;;3.30;;
57593;SDS011;43423;46.510;6.686;2023-07-22T02:07:59;7.18;;;3.35;;
57593;SDS011;43423;46.510;6.686;2023-07-22T02:10:24;14.90;;;3.30;;
57593;SDS011;43423;46.510;6.686;2023-07-22T02:12:50;5.80;;;3.03;;
57593;SDS011;43423;46.510;6.686;2023-07-22T02:15:15;8.25;;;2.97;;
57593;SDS011;43423;46.510;6.686;2023-07-22T02:17:41;5.05;;;3.13;;
57593;SDS011;43423;46.510;6.686;2023-07-22T02:20:07;7.72;;;3.13;;
57593;SDS011;43423;46.510;6.686;2023-07-22T02:22:34;5.25;;;2.92;;
57593;SDS011;43423;46.510;6.686;2023-07-22T02:24:59;7.40;;;3.47;;
57593;SDS011;43423;46.510;6.686;2023-07-22T02:27:25;6.43;;;2.95;;
57593;SDS011;43423;46.510;6.686;2023-07-22T02:29:50;6.53;;;3.65;;
57593;SDS011;43423;46.510;6.686;2023-07-22T02:32:17;7.53;;;3.30;;
57593;SDS011;43423;46.510;6.686;2023-07-22T02:34:42;7.70;;;3.22;;
57593;SDS011;43423;46.510;6.686;2023-07-22T02:37:08;8.38;;;3.00;;
57593;SDS011;43423;46.510;6.686;2023-07-22T02:39:33;5.30;;;2.67;;
57593;SDS011;43423;46.510;6.686;2023-07-22T02:41:59;5.07;;;2.63;;
57593;SDS011;43423;46.510;6.686;2023-07-22T02:44:25;5.90;;;3.50;;
57593;SDS011;43423;46.510;6.686;2023-07-22T02:46:51;5.70;;;2.92;;
57593;SDS011;43423;46.510;6.686;2023-07-22T02:49:17;8.40;;;3.08;;
57593;SDS011;43423;46.510;6.686;2023-07-22T02:51:43;8.88;;;2.83;;
57593;SDS011;43423;46.510;6.686;2023-07-22T02:54:09;4.95;;;2.97;;
57593;SDS011;43423;46.510;6.686;2023-07-22T02:56:34;8.27;;;3.45;;
57593;SDS011;43423;46.510;6.686;2023-07-22T02:59:00;6.03;;;3.35;;
57593;SDS011;43423;46.510;6.686;2023-07-22T03:01:25;6.20;;;3.15;;
57593;SDS011;43423;46.510;6.686;2023-07-22T03:03:51;9.63;;;3.72;;
57593;SDS011;43423;46.510;6.686;2023-07-22T03:06:16;9.20;;;3.85;;
57593;SDS011;43423;46.510;6.686;2023-07-22T03:08:42;8.82;;;3.50;;
57593;SDS011;43423;46.510;6.686;2023-07-22T03:11:08;8.98;;;3.28;;
57593;SDS011;43423;46.510;6.686;2023-07-22T03:13:33;5.95;;;3.03;;
57593;SDS011;43423;46.510;6.686;2023-07-22T03:16:00;5.90;;;3.17;;
57593;SDS011;43423;46.510;6.686;2023-07-22T03:18:29;7.65;;;3.50;;
57593;SDS011;43423;46.510;6.686;2023-07-22T03:20:56;6.95;;;3.60;;
57593;SDS011;43423;46.510;6.686;2023-07-22T03:23:22;6.38;;;3.00;;
57593;SDS011;43423;46.510;6.686;2023-07-22T03:25:48;5.80;;;3.25;;
57593;SDS011;43423;46.510;6.686;2023-07-22T03:28:13;5.57;;;3.50;;
57593;SDS011;43423;46.510;6.686;2023-07-22T03:30:39;7.35;;;3.38;;
57593;SDS011;43423;46.510;6.686;2023-07-22T03:33:04;8.75;;;3.20;;
57593;SDS011;43423;46.510;6.686;2023-07-22T03:35:30;5.50;;;3.10;;
57593;SDS011;43423;46.510;6.686;2023-07-22T03:37:58;6.47;;;3.28;;
57593;SDS011;43423;46.510;6.686;2023-07-22T03:40:24;10.43;;;5.15;;
57593;SDS011;43423;46.510;6.686;2023-07-22T03:42:54;8.65;;;4.07;;
57593;SDS011;43423;46.510;6.686;2023-07-22T03:45:21;6.07;;;3.30;;
57593;SDS011;43423;46.510;6.686;2023-07-22T03:47:50;5.82;;;3.55;;
57593;SDS011;43423;46.510;6.686;2023-07-22T03:50:17;9.40;;;3.92;;
57593;SDS011;43423;46.510;6.686;2023-07-22T03:52:43;13.57;;;3.83;;
57593;SDS011;43423;46.510;6.686;2023-07-22T03:55:09;6.63;;;3.53;;
57593;SDS011;43423;46.510;6.686;2023-07-22T03:57:34;6.65;;;3.55;;
57593;SDS011;43423;46.510;6.686;2023-07-22T04:00:00;5.97;;;3.33;;
57593;SDS011;43423;46.510;6.686;2023-07-22T04:02:25;7.10;;;3.28;;
57593;SDS011;43423;46.510;6.686;2023-07-22T04:04:53;8.00;;;3.05;;
57593;SDS011;43423;46.510;6.686;2023-07-22T04:07:19;8.50;;;3.20;;
57593;SDS011;43423;46.510;6.686;2023-07-22T04:09:45;6.80;;;4.00;;
57593;SDS011;43423;46.510;6.686;2023-07-22T04:12:11;7.03;;;3.63;;
57593;SDS011;43423;46.510;6.686;2023-07-22T04:14:37;8.90;;;4.35;;
57593;SDS011;43423;46.510;6.686;2023-07-22T04:17:04;5.70;;;3.97;;
57593;SDS011;43423;46.510;6.686;2023-07-22T04:19:29;8.18;;;3.67;;
57593;SDS011;43423;46.510;6.686;2023-07-22T04:21:55;8.45;;;3.97;;
57593;SDS011;43423;46.510;6.686;2023-07-22T04:24:21;8.52;;;3.70;;
57593;SDS011;43423;46.510;6.686;2023-07-22T04:26:47;9.18;;;4.18;;
57593;SDS011;43423;46.510;6.686;2023-07-22T04:29:12;9.93;;;4.25;;
57593;SDS011;43423;46.510;6.686;2023-07-22T04:31:38;8.20;;;3.70;;
57593;SDS011;43423;46.510;6.686;2023-07-22T04:34:04;8.82;;;3.72;;
57593;SDS011;43423;46.510;6.686;2023-07-22T04:36:31;5.40;;;3.35;;
57593;SDS011;43423;46.510;6.686;2023-07-22T04:38:56;8.13;;;3.72;;
57593;SDS011;43423;46.510;6.686;2023-07-22T04:41:22;7.43;;;3.67;;
57593;SDS011;43423;46.510;6.686;2023-07-22T04:43:48;10.15;;;3.97;;
57593;SDS011;43423;46.510;6.686;2023-07-22T04:46:13;5.80;;;3.30;;
57593;SDS011;43423;46.510;6.686;2023-07-22T04:48:39;5.93;;;2.85;;
57593;SDS011;43423;46.510;6.686;2023-07-22T04:51:04;4.85;;;2.97;;
57593;SDS011;43423;46.510;6.686;2023-07-22T04:53:30;7.00;;;3.22;;
57593;SDS011;43423;46.510;6.686;2023-07-22T04:55:56;8.05;;;3.13;;
57593;SDS011;43423;46.510;6.686;2023-07-22T04:58:21;9.02;;;3.17;;
57593;SDS011;43423;46.510;6.686;2023-07-22T05:00:52;8.90;;;3.78;;
57593;SDS011;43423;46.510;6.686;2023-07-22T05:03:18;7.25;;;3.25;;
57593;SDS011;43423;46.510;6.686;2023-07-22T05:05:44;8.40;;;3.00;;
57593;SDS011;43423;46.510;6.686;2023-07-22T05:08:09;6.68;;;3.13;;
57593;SDS011;43423;46.510;6.686;2023-07-22T05:10:38;5.43;;;3.00;;
57593;SDS011;43423;46.510;6.686;2023-07-22T05:13:04;9.05;;;3.50;;
57593;SDS011;43423;46.510;6.686;2023-07-22T05:15:30;7.60;;;3.22;;
57593;SDS011;43423;46.510;6.686;2023-07-22T05:17:55;5.00;;;2.45;;
57593;SDS011;43423;46.510;6.686;2023-07-22T05:20:21;6.25;;;2.80;;
57593;SDS011;43423;46.510;6.686;2023-07-22T05:22:47;5.10;;;2.65;;
57593;SDS011;43423;46.510;6.686;2023-07-22T05:25:14;5.05;;;2.42;;
57593;SDS011;43423;46.510;6.686;2023-07-22T05:27:39;5.45;;;2.67;;
57593;SDS011;43423;46.510;6.686;2023-07-22T05:30:06;7.22;;;3.17;;
57593;SDS011;43423;46.510;6.686;2023-07-22T05:32:32;5.65;;;2.92;;
57593;SDS011;43423;46.510;6.686;2023-07-22T05:34:57;4.78;;;2.60;;
57593;SDS011;43423;46.510;6.686;2023-07-22T05:37:23;7.38;;;2.92;;
57593;SDS011;43423;46.510;6.686;2023-07-22T05:39:50;5.75;;;3.38;;
57593;SDS011;43423;46.510;6.686;2023-07-22T05:42:16;4.45;;;2.78;;
57593;SDS011;43423;46.510;6.686;2023-07-22T05:44:42;4.40;;;2.63;;
57593;SDS011;43423;46.510;6.686;2023-07-22T05:47:07;7.05;;;2.88;;
57593;SDS011;43423;46.510;6.686;2023-07-22T05:49:33;6.70;;;2.72;;
57593;SDS011;43423;46.510;6.686;2023-07-22T05:51:58;6.57;;;2.88;;
57593;SDS011;43423;46.510;6.686;2023-07-22T05:54:24;7.15;;;2.83;;
57593;SDS011;43423;46.510;6.686;2023-07-22T05:56:49;5.95;;;3.45;;
57593;SDS011;43423;46.510;6.686;2023-07-22T05:59:15;6.15;;;2.88;;
57593;SDS011;43423;46.510;6.686;2023-07-22T06:01:40;6.22;;;2.92;;
57593;SDS011;43423;46.510;6.686;2023-07-22T06:04:06;7.35;;;3.03;;
57593;SDS011;43423;46.510;6.686;2023-07-22T06:06:32;6.55;;;3.28;;
57593;SDS011;43423;46.510;6.686;2023-07-22T06:08:57;4.45;;;2.70;;
57593;SDS011;43423;46.510;6.686;2023-07-22T06:11:23;5.45;;;3.05;;
57593;SDS011;43423;46.510;6.686;2023-07-22T06:13:49;6.68;;;3.65;;
57593;SDS011;43423;46.510;6.686;2023-07-22T06:16:14;6.45;;;3.05;;
57593;SDS011;43423;46.510;6.686;2023-07-22T06:18:40;5.22;;;2.92;;
57593;SDS011;43423;46.510;6.686;2023-07-22T06:21:05;8.27;;;2.97;;
57593;SDS011;43423;46.510;6.686;2023-07-22T06:23:31;6.70;;;3.00;;
57593;SDS011;43423;46.510;6.686;2023-07-22T06:25:57;6.78;;;3.50;;
57593;SDS011;43423;46.510;6.686;2023-07-22T06:28:22;5.63;;;2.95;;
57593;SDS011;43423;46.510;6.686;2023-07-22T06:30:48;6.85;;;3.35;;
57593;SDS011;43423;46.510;6.686;2023-07-22T06:33:13;6.85;;;2.63;;
57593;SDS011;43423;46.510;6.686;2023-07-22T06:35:39;6.00;;;2.80;;
57593;SDS011;43423;46.510;6.686;2023-07-22T06:38:04;11.40;;;2.70;;
57593;SDS011;43423;46.510;6.686;2023-07-22T06:40:30;10.38;;;3.72;;
57593;SDS011;43423;46.510;6.686;2023-07-22T06:42:55;4.45;;;2.67;;
57593;SDS011;43423;46.510;6.686;2023-07-22T06:45:21;7.22;;;3.00;;
57593;SDS011;43423;46.510;6.686;2023-07-22T06:47:46;4.55;;;2.60;;
57593;SDS011;43423;46.510;6.686;2023-07-22T06:50:12;5.75;;;2.78;;
57593;SDS011;43423;46.510;6.686;2023-07-22T06:52:38;7.47;;;3.22;;
57593;SDS011;43423;46.510;6.686;2023-07-22T06:55:04;5.43;;;3.33;;
57593;SDS011;43423;46.510;6.686;2023-07-22T06:57:30;4.00;;;2.53;;
57593;SDS011;43423;46.510;6.686;2023-07-22T06:59:56;6.03;;;3.20;;
57593;SDS011;43423;46.510;6.686;2023-07-22T07:02:22;5.07;;;2.88;;
57593;SDS011;43423;46.510;6.686;2023-07-22T07:04:48;5.82;;;2.80;;
57593;SDS011;43423;46.510;6.686;2023-07-22T07:07:14;7.20;;;2.63;;
57593;SDS011;43423;46.510;6.686;2023-07-22T07:09:41;4.32;;;2.85;;
57593;SDS011;43423;46.510;6.686;2023-07-22T07:12:07;5.03;;;2.60;;
57593;SDS011;43423;46.510;6.686;2023-07-22T07:14:33;7.72;;;3.08;;
57593;SDS011;43423;46.510;6.686;2023-07-22T07:16:59;4.72;;;2.65;;
57593;SDS011;43423;46.510;6.686;2023-07-22T07:19:26;6.57;;;3.47;;
57593;SDS011;43423;46.510;6.686;2023-07-22T07:21:51;7.28;;;2.88;;
57593;SDS011;43423;46.510;6.686;2023-07-22T07:24:17;5.03;;;2.92;;
57593;SDS011;43423;46.510;6.686;2023-07-22T07:26:43;6.40;;;2.85;;
57593;SDS011;43423;46.510;6.686;2023-07-22T07:29:08;4.70;;;2.70;;
57593;SDS011;43423;46.510;6.686;2023-07-22T07:31:34;6.85;;;3.10;;
57593;SDS011;43423;46.510;6.686;2023-07-22T07:34:00;6.72;;;3.47;;
57593;SDS011;43423;46.510;6.686;2023-07-22T07:36:25;5.43;;;3.05;;
57593;SDS011;43423;46.510;6.686;2023-07-22T07:38:51;4.68;;;3.05;;
57593;SDS011;43423;46.510;6.686;2023-07-22T07:41:16;8.00;;;3.42;;
57593;SDS011;43423;46.510;6.686;2023-07-22T07:43:42;9.05;;;3.30;;
57593;SDS011;43423;46.510;6.686;2023-07-22T07:46:41;7.38;;;3.53;;
57593;SDS011;43423;46.510;6.686;2023-07-22T07:49:00;6.10;;;3.45;;
57593;SDS011;43423;46.510;6.686;2023-07-22T07:51:27;5.60;;;3.22;;
57593;SDS011;43423;46.510;6.686;2023-07-22T07:53:56;6.28;;;3.10;;
57593;SDS011;43423;46.510;6.686;2023-07-22T07:56:23;5.32;;;3.05;;
57593;SDS011;43423;46.510;6.686;2023-07-22T07:58:49;7.05;;;3.30;;
57593;SDS011;43423;46.510;6.686;2023-07-22T08:01:16;5.15;;;3.05;;
57593;SDS011;43423;46.510;6.686;2023-07-22T08:03:42;5.43;;;3.05;;
57593;SDS011;43423;46.510;6.686;2023-07-22T08:06:09;5.93;;;2.92;;
57593;SDS011;43423;46.510;6.686;2023-07-22T08:08:35;8.93;;;3.25;;
57593;SDS011;43423;46.510;6.686;2023-07-22T08:11:02;5.40;;;3.08;;
57593;SDS011;43423;46.510;6.686;2023-07-22T08:13:29;4.13;;;2.90;;
57593;SDS011;43423;46.510;6.686;2023-07-22T08:15:59;7.47;;;3.10;;
57593;SDS011;43423;46.510;6.686;2023-07-22T08:18:29;4.40;;;2.63;;
57593;SDS011;43423;46.510;6.686;2023-07-22T08:20:55;7.40;;;2.92;;
57593;SDS011;43423;46.510;6.686;2023-07-22T08:23:21;5.97;;;2.58;;
57593;SDS011;43423;46.510;6.686;2023-07-22T08:25:47;4.80;;;2.63;;
57593;SDS011;43423;46.510;6.686;2023-07-22T08:28:13;5.55;;;2.80;;
57593;SDS011;43423;46.510;6.686;2023-07-22T08:30:39;6.20;;;3.28;;
57593;SDS011;43423;46.510;6.686;2023-07-22T08:33:08;5.38;;;3.00;;
57593;SDS011;43423;46.510;6.686;2023-07-22T08:35:37;5.68;;;3.03;;
57593;SDS011;43423;46.510;6.686;2023-07-22T08:38:03;4.72;;;2.60;;
57593;SDS011;43423;46.510;6.686;2023-07-22T08:40:38;5.13;;;2.78;;
57593;SDS011;43423;46.510;6.686;2023-07-22T08:43:06;4.88;;;2.78;;
57593;SDS011;43423;46.510;6.686;2023-07-22T08:45:34;6.75;;;2.22;;
57593;SDS011;43423;46.510;6.686;2023-07-22T08:48:05;3.03;;;1.98;;
57593;SDS011;43423;46.510;6.686;2023-07-22T08:50:42;5.43;;;2.20;;
57593;SDS011;43423;46.510;6.686;2023-07-22T08:53:11;5.03;;;2.03;;
57593;SDS011;43423;46.510;6.686;2023-07-22T08:55:37;3.75;;;1.88;;
57593;SDS011;43423;46.510;6.686;2023-07-22T08:58:05;3.90;;;2.05;;
57593;SDS011;43423;46.510;6.686;2023-07-22T09:00:33;5.05;;;2.38;;
57593;SDS011;43423;46.510;6.686;2023-07-22T09:02:59;6.40;;;2.47;;
57593;SDS011;43423;46.510;6.686;2023-07-22T09:05:26;3.80;;;2.53;;
57593;SDS011;43423;46.510;6.686;2023-07-22T09:07:52;4.63;;;2.50;;
57593;SDS011;43423;46.510;6.686;2023-07-22T09:10:19;5.07;;;2.33;;
57593;SDS011;43423;46.510;6.686;2023-07-22T09:12:45;5.38;;;2.70;;
57593;SDS011;43423;46.510;6.686;2023-07-22T09:15:12;4.68;;;2.70;;
57593;SDS011;43423;46.510;6.686;2023-07-22T09:17:38;3.90;;;2.20;;
57593;SDS011;43423;46.510;6.686;2023-07-22T09:20:06;3.03;;;2.08;;
57593;SDS011;43423;46.510;6.686;2023-07-22T09:22:32;4.40;;;2.42;;
57593;SDS011;43423;46.510;6.686;2023-07-22T09:25:16;3.30;;;2.10;;
57593;SDS011;43423;46.510;6.686;2023-07-22T09:27:43;2.75;;;1.80;;
57593;SDS011;43423;46.510;6.686;2023-07-22T09:30:26;1.92;;;1.45;;
57593;SDS011;43423;46.510;6.686;2023-07-22T09:33:00;3.40;;;1.67;;
57593;SDS011;43423;46.510;6.686;2023-07-22T09:35:27;2.22;;;2.00;;
57593;SDS011;43423;46.510;6.686;2023-07-22T09:37:54;2.83;;;2.05;;
57593;SDS011;43423;46.510;6.686;2023-07-22T09:42:48;2.88;;;1.88;;
57593;SDS011;43423;46.510;6.686;2023-07-22T09:45:22;2.55;;;1.40;;
57593;SDS011;43423;46.510;6.686;2023-07-22T09:47:49;3.95;;;2.22;;
57593;SDS011;43423;46.510;6.686;2023-07-22T09:50:16;3.72;;;2.28;;
57593;SDS011;43423;46.510;6.686;2023-07-22T09:52:44;9.52;;;2.05;;
57593;SDS011;43423;46.510;6.686;2023-07-22T09:55:12;3.55;;;2.03;;
57593;SDS011;43423;46.510;6.686;2023-07-22T09:57:43;4.57;;;2.10;;
57593;SDS011;43423;46.510;6.686;2023-07-22T10:00:13;3.78;;;2.22;;
57593;SDS011;43423;46.510;6.686;2023-07-22T10:02:40;5.78;;;2.30;;
57593;SDS011;43423;46.510;6.686;2023-07-22T10:05:12;3.97;;;1.88;;
57593;SDS011;43423;46.510;6.686;2023-07-22T10:07:43;4.03;;;2.47;;
57593;SDS011;43423;46.510;6.686;2023-07-22T10:10:11;2.03;;;1.70;;
57593;SDS011;43423;46.510;6.686;2023-07-22T10:12:40;4.82;;;2.05;;
57593;SDS011;43423;46.510;6.686;2023-07-22T10:15:07;4.15;;;2.15;;
57593;SDS011;43423;46.510;6.686;2023-07-22T10:17:34;4.43;;;2.10;;
57593;SDS011;43423;46.510;6.686;2023-07-22T10:19:59;4.97;;;2.20;;
57593;SDS011;43423;46.510;6.686;2023-07-22T10:22:25;3.20;;;1.92;;
57593;SDS011;43423;46.510;6.686;2023-07-22T10:24:52;6.18;;;2.10;;
57593;SDS011;43423;46.510;6.686;2023-07-22T10:27:18;4.20;;;2.08;;
57593;SDS011;43423;46.510;6.686;2023-07-22T10:29:45;3.75;;;2.10;;
57593;SDS011;43423;46.510;6.686;2023-07-22T10:32:11;3.60;;;2.20;;
57593;SDS011;43423;46.510;6.686;2023-07-22T10:34:37;3.53;;;2.05;;
57593;SDS011;43423;46.510;6.686;2023-07-22T10:37:02;3.75;;;2.08;;
57593;SDS011;43423;46.510;6.686;2023-07-22T10:39:29;2.80;;;1.58;;
57593;SDS011;43423;46.510;6.686;2023-07-22T10:42:01;3.17;;;1.80;;
57593;SDS011;43423;46.510;6.686;2023-07-22T10:44:31;4.00;;;1.63;;
57593;SDS011;43423;46.510;6.686;2023-07-22T10:46:58;2.15;;;1.67;;
57593;SDS011;43423;46.510;6.686;2023-07-22T10:49:27;3.17;;;1.88;;
57593;SDS011;43423;46.510;6.686;2023-07-22T10:52:07;2.95;;;1.65;;
57593;SDS011;43423;46.510;6.686;2023-07-22T10:54:33;2.90;;;2.22;;
57593;SDS011;43423;46.510;6.686;2023-07-22T10:57:22;3.10;;;1.95;;
57593;SDS011;43423;46.510;6.686;2023-07-22T11:02:27;2.72;;;1.88;;
57593;SDS011;43423;46.510;6.686;2023-07-22T11:04:57;3.67;;;1.70;;
57593;SDS011;43423;46.510;6.686;2023-07-22T11:07:34;2.10;;;1.65;;
57593;SDS011;43423;46.510;6.686;2023-07-22T11:10:12;3.38;;;1.80;;
57593;SDS011;43423;46.510;6.686;2023-07-22T11:12:42;2.45;;;1.67;;
57593;SDS011;43423;46.510;6.686;2023-07-22T11:15:09;2.25;;;1.60;;
57593;SDS011;43423;46.510;6.686;2023-07-22T11:17:35;2.65;;;1.75;;
57593;SDS011;43423;46.510;6.686;2023-07-22T11:20:01;2.85;;;1.52;;
57593;SDS011;43423;46.510;6.686;2023-07-22T11:22:27;2.78;;;1.90;;
57593;SDS011;43423;46.510;6.686;2023-07-22T11:24:56;3.63;;;1.70;;
57593;SDS011;43423;46.510;6.686;2023-07-22T11:27:24;2.63;;;1.83;;
57593;SDS011;43423;46.510;6.686;2023-07-22T11:29:51;2.60;;;1.85;;
57593;SDS011;43423;46.510;6.686;2023-07-22T11:32:17;2.40;;;1.67;;
57593;SDS011;43423;46.510;6.686;2023-07-22T11:34:44;3.25;;;2.00;;
57593;SDS011;43423;46.510;6.686;2023-07-22T11:37:10;2.40;;;1.90;;
57593;SDS011;43423;46.510;6.686;2023-07-22T11:39:36;2.90;;;1.80;;
57593;SDS011;43423;46.510;6.686;2023-07-22T11:42:03;2.40;;;1.77;;
57593;SDS011;43423;46.510;6.686;2023-07-22T11:44:30;3.08;;;1.67;;
57593;SDS011;43423;46.510;6.686;2023-07-22T11:47:06;3.15;;;1.70;;
57593;SDS011;43423;46.510;6.686;2023-07-22T11:49:36;2.20;;;1.53;;
57593;SDS011;43423;46.510;6.686;2023-07-22T11:52:06;2.85;;;1.42;;
57593;SDS011;43423;46.510;6.686;2023-07-22T11:54:40;2.78;;;1.55;;
57593;SDS011;43423;46.510;6.686;2023-07-22T11:57:11;2.05;;;1.63;;
57593;SDS011;43423;46.510;6.686;2023-07-22T11:59:44;2.75;;;1.58;;
57593;SDS011;43423;46.510;6.686;2023-07-22T12:04:56;2.47;;;1.60;;
57593;SDS011;43423;46.510;6.686;2023-07-22T12:07:28;3.83;;;1.65;;
57593;SDS011;43423;46.510;6.686;2023-07-22T12:09:57;1.70;;;1.50;;
57593;SDS011;43423;46.510;6.686;2023-07-22T12:12:31;3.42;;;1.83;;
57593;SDS011;43423;46.510;6.686;2023-07-22T12:15:04;1.75;;;1.50;;
57593;SDS011;43423;46.510;6.686;2023-07-22T12:18:13;2.55;;;1.70;;
57593;SDS011;43423;46.510;6.686;2023-07-22T12:20:33;3.22;;;1.70;;
57593;SDS011;43423;46.510;6.686;2023-07-22T12:23:00;3.13;;;1.52;;
57593;SDS011;43423;46.510;6.686;2023-07-22T12:25:26;4.47;;;1.75;;
57593;SDS011;43423;46.510;6.686;2023-07-22T12:27:52;2.92;;;1.90;;
57593;SDS011;43423;46.510;6.686;2023-07-22T12:30:18;2.08;;;1.63;;
57593;SDS011;43423;46.510;6.686;2023-07-22T12:32:44;2.70;;;1.80;;
57593;SDS011;43423;46.510;6.686;2023-07-22T12:35:09;2.00;;;1.60;;
57593;SDS011;43423;46.510;6.686;2023-07-22T12:37:35;2.95;;;1.70;;
57593;SDS011;43423;46.510;6.686;2023-07-22T12:40:02;1.80;;;1.70;;
57593;SDS011;43423;46.510;6.686;2023-07-22T12:42:34;2.90;;;1.92;;
57593;SDS011;43423;46.510;6.686;2023-07-22T12:45:00;1.83;;;1.55;;
57593;SDS011;43423;46.510;6.686;2023-07-22T12:47:26;2.65;;;1.80;;
57593;SDS011;43423;46.510;6.686;2023-07-22T12:49:51;5.07;;;1.90;;
57593;SDS011;43423;46.510;6.686;2023-07-22T12:52:17;2.47;;;1.77;;
57593;SDS011;43423;46.510;6.686;2023-07-22T12:54:42;2.95;;;1.70;;
57593;SDS011;43423;46.510;6.686;2023-07-22T12:57:08;2.05;;;1.40;;
57593;SDS011;43423;46.510;6.686;2023-07-22T12:59:33;2.67;;;1.63;;
57593;SDS011;43423;46.510;6.686;2023-07-22T13:01:59;2.97;;;1.45;;
57593;SDS011;43423;46.510;6.686;2023-07-22T13:04:24;2.50;;;1.67;;
57593;SDS011;43423;46.510;6.686;2023-07-22T13:06:50;3.03;;;1.55;;
57593;SDS011;43423;46.510;6.686;2023-07-22T13:09:19;3.55;;;1.67;;
57593;SDS011;43423;46.510;6.686;2023-07-22T13:11:45;3.28;;;1.58;;
57593;SDS011;43423;46.510;6.686;2023-07-22T13:14:11;2.30;;;1.65;;
57593;SDS011;43423;46.510;6.686;2023-07-22T13:16:37;2.60;;;1.80;;
57593;SDS011;43423;46.510;6.686;2023-07-22T13:19:02;2.97;;;1.98;;
57593;SDS011;43423;46.510;6.686;2023-07-22T13:21:29;1.80;;;1.40;;
57593;SDS011;43423;46.510;6.686;2023-07-22T13:23:55;4.22;;;1.77;;
57593;SDS011;43423;46.510;6.686;2023-07-22T13:26:20;3.20;;;1.70;;
57593;SDS011;43423;46.510;6.686;2023-07-22T13:28:47;2.58;;;1.45;;
57593;SDS011;43423;46.510;6.686;2023-07-22T13:31:13;2.25;;;1.30;;
57593;SDS011;43423;46.510;6.686;2023-07-22T13:33:38;3.75;;;1.75;;
57593;SDS011;43423;46.510;6.686;2023-07-22T13:36:04;2.20;;;1.60;;
57593;SDS011;43423;46.510;6.686;2023-07-22T13:38:29;2.42;;;1.67;;
57593;SDS011;43423;46.510;6.686;2023-07-22T13:40:55;2.80;;;1.77;;
57593;SDS011;43423;46.510;6.686;2023-07-22T13:43:21;2.70;;;1.50;;
57593;SDS011;43423;46.510;6.686;2023-07-22T13:45:46;2.10;;;1.67;;
57593;SDS011;43423;46.510;6.686;2023-07-22T13:48:12;2.22;;;1.70;;
57593;SDS011;43423;46.510;6.686;2023-07-22T13:50:37;2.58;;;1.40;;
57593;SDS011;43423;46.510;6.686;2023-07-22T13:53:03;1.73;;;1.63;;
57593;SDS011;43423;46.510;6.686;2023-07-22T13:55:29;2.25;;;1.73;;
57593;SDS011;43423;46.510;6.686;2023-07-22T13:57:54;2.67;;;1.80;;
57593;SDS011;43423;46.510;6.686;2023-07-22T14:00:20;2.22;;;1.73;;
57593;SDS011;43423;46.510;6.686;2023-07-22T14:02:45;2.17;;;1.58;;
57593;SDS011;43423;46.510;6.686;2023-07-22T14:05:11;2.47;;;1.60;;
57593;SDS011;43423;46.510;6.686;2023-07-22T14:07:38;3.03;;;1.70;;
57593;SDS011;43423;46.510;6.686;2023-07-22T14:10:05;1.90;;;1.40;;
57593;SDS011;43423;46.510;6.686;2023-07-22T14:12:31;1.77;;;1.48;;
57593;SDS011;43423;46.510;6.686;2023-07-22T14:14:56;2.55;;;1.90;;
57593;SDS011;43423;46.510;6.686;2023-07-22T14:17:22;1.92;;;1.67;;
57593;SDS011;43423;46.510;6.686;2023-07-22T14:19:48;2.78;;;1.60;;
57593;SDS011;43423;46.510;6.686;2023-07-22T14:22:13;2.15;;;1.65;;
57593;SDS011;43423;46.510;6.686;2023-07-22T14:24:39;1.58;;;1.42;;
57593;SDS011;43423;46.510;6.686;2023-07-22T14:27:04;2.15;;;1.48;;
57593;SDS011;43423;46.510;6.686;2023-07-22T14:29:30;3.65;;;1.58;;
57593;SDS011;43423;46.510;6.686;2023-07-22T14:31:56;1.63;;;1.40;;
57593;SDS011;43423;46.510;6.686;2023-07-22T14:34:23;3.10;;;1.40;;
57593;SDS011;43423;46.510;6.686;2023-07-22T14:36:49;3.25;;;1.40;;
57593;SDS011;43423;46.510;6.686;2023-07-22T14:39:15;2.38;;;1.10;;
57593;SDS011;43423;46.510;6.686;2023-07-22T14:41:41;1.75;;;1.45;;
57593;SDS011;43423;46.510;6.686;2023-07-22T14:44:10;2.30;;;1.40;;
57593;SDS011;43423;46.510;6.686;2023-07-22T14:46:35;1.60;;;1.42;;
57593;SDS011;43423;46.510;6.686;2023-07-22T14:49:01;4.00;;;1.40;;
57593;SDS011;43423;46.510;6.686;2023-07-22T14:51:27;1.75;;;1.27;;
57593;SDS011;43423;46.510;6.686;2023-07-22T14:53:53;1.73;;;1.40;;